sensor_id;sensor_type;location;lat;lon;timestamp;P1;durP1;ratioP1;P2;durP2;ratioP2
4698;SDS011;33708;49.466;11.176;2023-11-22T00:01:10;8.80;;;5.90;;
4698;SDS011;33708;49.466;11.176;2023-11-22T00:03:36;9.37;;;6.13;;
4698;SDS011;33708;49.466;11.176;2023-11-22T00:06:03;11.10;;;6.60;;
4698;SDS011;33708;49.466;11.176;2023-11-22T00:12:47;5.80;;;4.20;;
4698;SDS011;33708;49.466;11.176;2023-11-22T00:15:14;8.43;;;4.33;;
4698;SDS011;33708;49.466;11.176;2023-11-22T00:17:43;9.27;;;4.00;;
4698;SDS011;33708;49.466;11.176;2023-11-22T00:20:10;6.70;;;3.90;;
4698;SDS011;33708;49.466;11.176;2023-11-22T00:22:39;7.20;;;4.13;;
4698;SDS011;33708;49.466;11.176;2023-11-22T00:25:06;5.27;;;3.77;;
4698;SDS011;33708;49.466;11.176;2023-11-22T00:27:33;6.80;;;3.60;;
4698;SDS011;33708;49.466;11.176;2023-11-22T00:30:32;5.70;;;3.27;;
4698;SDS011;33708;49.466;11.176;2023-11-22T00:33:26;7.50;;;3.70;;
4698;SDS011;33708;49.466;11.176;2023-11-22T00:35:57;7.97;;;3.80;;
4698;SDS011;33708;49.466;11.176;2023-11-22T00:38:48;6.80;;;3.90;;
4698;SDS011;33708;49.466;11.176;2023-11-22T00:41:14;5.90;;;3.80;;
4698;SDS011;33708;49.466;11.176;2023-11-22T00:43:48;6.30;;;4.00;;
4698;SDS011;33708;49.466;11.176;2023-11-22T00:46:41;6.67;;;3.93;;
4698;SDS011;33708;49.466;11.176;2023-11-22T00:49:13;6.63;;;4.20;;
4698;SDS011;33708;49.466;11.176;2023-11-22T00:51:46;5.87;;;4.00;;
4698;SDS011;33708;49.466;11.176;2023-11-22T00:54:18;6.50;;;4.47;;
4698;SDS011;33708;49.466;11.176;2023-11-22T00:56:45;5.70;;;3.90;;
4698;SDS011;33708;49.466;11.176;2023-11-22T00:59:21;7.20;;;4.40;;
4698;SDS011;33708;49.466;11.176;2023-11-22T01:02:07;7.70;;;4.70;;
4698;SDS011;33708;49.466;11.176;2023-11-22T01:04:33;6.07;;;3.83;;
4698;SDS011;33708;49.466;11.176;2023-11-22T01:07:02;8.40;;;4.00;;
4698;SDS011;33708;49.466;11.176;2023-11-22T01:09:43;13.33;;;4.37;;
4698;SDS011;33708;49.466;11.176;2023-11-22T01:12:35;6.63;;;4.23;;
4698;SDS011;33708;49.466;11.176;2023-11-22T01:15:09;6.60;;;4.53;;
4698;SDS011;33708;49.466;11.176;2023-11-22T01:17:35;6.60;;;4.80;;
4698;SDS011;33708;49.466;11.176;2023-11-22T01:20:02;5.80;;;4.13;;
4698;SDS011;33708;49.466;11.176;2023-11-22T01:25:25;8.20;;;4.80;;
4698;SDS011;33708;49.466;11.176;2023-11-22T01:28:31;7.17;;;4.77;;
4698;SDS011;33708;49.466;11.176;2023-11-22T01:30:59;8.00;;;4.90;;
4698;SDS011;33708;49.466;11.176;2023-11-22T01:33:50;11.00;;;5.47;;
4698;SDS011;33708;49.466;11.176;2023-11-22T01:36:42;7.57;;;4.70;;
4698;SDS011;33708;49.466;11.176;2023-11-22T01:39:10;7.00;;;4.80;;
4698;SDS011;33708;49.466;11.176;2023-11-22T01:44:45;9.60;;;5.57;;
4698;SDS011;33708;49.466;11.176;2023-11-22T01:59:53;9.20;;;5.50;;
4698;SDS011;33708;49.466;11.176;2023-11-22T02:02:20;8.27;;;5.27;;
4698;SDS011;33708;49.466;11.176;2023-11-22T02:04:59;8.10;;;5.30;;
4698;SDS011;33708;49.466;11.176;2023-11-22T02:07:30;8.20;;;4.87;;
4698;SDS011;33708;49.466;11.176;2023-11-22T02:10:30;8.13;;;5.43;;
4698;SDS011;33708;49.466;11.176;2023-11-22T02:13:13;6.70;;;4.37;;
4698;SDS011;33708;49.466;11.176;2023-11-22T02:15:59;8.17;;;5.70;;
4698;SDS011;33708;49.466;11.176;2023-11-22T02:18:26;7.40;;;4.93;;
4698;SDS011;33708;49.466;11.176;2023-11-22T02:20:54;10.40;;;4.90;;
4698;SDS011;33708;49.466;11.176;2023-11-22T02:23:21;8.60;;;5.73;;
4698;SDS011;33708;49.466;11.176;2023-11-22T02:25:47;15.73;;;5.47;;
4698;SDS011;33708;49.466;11.176;2023-11-22T02:28:16;8.97;;;5.40;;
4698;SDS011;33708;49.466;11.176;2023-11-22T02:30:41;9.73;;;5.93;;
4698;SDS011;33708;49.466;11.176;2023-11-22T02:33:07;9.90;;;5.17;;
4698;SDS011;33708;49.466;11.176;2023-11-22T02:35:33;8.00;;;5.20;;
4698;SDS011;33708;49.466;11.176;2023-11-22T02:37:59;12.30;;;6.57;;
4698;SDS011;33708;49.466;11.176;2023-11-22T02:40:26;8.90;;;6.03;;
4698;SDS011;33708;49.466;11.176;2023-11-22T02:42:56;11.60;;;6.70;;
4698;SDS011;33708;49.466;11.176;2023-11-22T02:45:26;9.70;;;6.07;;
4698;SDS011;33708;49.466;11.176;2023-11-22T02:47:53;7.73;;;5.13;;
4698;SDS011;33708;49.466;11.176;2023-11-22T02:50:18;8.00;;;5.37;;
4698;SDS011;33708;49.466;11.176;2023-11-22T02:52:44;10.23;;;5.43;;
4698;SDS011;33708;49.466;11.176;2023-11-22T02:55:10;8.10;;;5.20;;
4698;SDS011;33708;49.466;11.176;2023-11-22T02:57:36;7.27;;;4.83;;
4698;SDS011;33708;49.466;11.176;2023-11-22T03:00:05;9.23;;;6.00;;
4698;SDS011;33708;49.466;11.176;2023-11-22T03:02:38;7.43;;;5.03;;
4698;SDS011;33708;49.466;11.176;2023-11-22T03:05:05;8.53;;;5.10;;
4698;SDS011;33708;49.466;11.176;2023-11-22T03:07:31;6.27;;;4.37;;
4698;SDS011;33708;49.466;11.176;2023-11-22T03:09:57;10.47;;;4.93;;
4698;SDS011;33708;49.466;11.176;2023-11-22T03:12:25;7.40;;;4.43;;
4698;SDS011;33708;49.466;11.176;2023-11-22T03:14:50;8.00;;;4.90;;
4698;SDS011;33708;49.466;11.176;2023-11-22T03:17:16;7.77;;;4.90;;
4698;SDS011;33708;49.466;11.176;2023-11-22T03:19:42;7.70;;;5.00;;
4698;SDS011;33708;49.466;11.176;2023-11-22T03:22:09;8.83;;;5.03;;
4698;SDS011;33708;49.466;11.176;2023-11-22T03:24:35;7.40;;;4.87;;
4698;SDS011;33708;49.466;11.176;2023-11-22T03:27:02;9.90;;;5.80;;
4698;SDS011;33708;49.466;11.176;2023-11-22T03:29:28;8.60;;;5.40;;
4698;SDS011;33708;49.466;11.176;2023-11-22T03:31:54;7.20;;;4.67;;
4698;SDS011;33708;49.466;11.176;2023-11-22T03:34:19;8.70;;;5.53;;
4698;SDS011;33708;49.466;11.176;2023-11-22T03:36:45;8.50;;;4.57;;
4698;SDS011;33708;49.466;11.176;2023-11-22T03:39:11;9.27;;;5.70;;
4698;SDS011;33708;49.466;11.176;2023-11-22T03:41:36;6.40;;;4.30;;
4698;SDS011;33708;49.466;11.176;2023-11-22T03:44:03;6.57;;;4.40;;
4698;SDS011;33708;49.466;11.176;2023-11-22T03:46:37;7.47;;;4.53;;
4698;SDS011;33708;49.466;11.176;2023-11-22T03:49:04;6.40;;;4.40;;
4698;SDS011;33708;49.466;11.176;2023-11-22T03:51:31;9.77;;;5.03;;
4698;SDS011;33708;49.466;11.176;2023-11-22T03:53:57;6.60;;;4.37;;
4698;SDS011;33708;49.466;11.176;2023-11-22T03:56:23;6.57;;;4.23;;
4698;SDS011;33708;49.466;11.176;2023-11-22T03:58:49;6.33;;;3.97;;
4698;SDS011;33708;49.466;11.176;2023-11-22T04:01:15;5.03;;;3.50;;
4698;SDS011;33708;49.466;11.176;2023-11-22T04:03:45;6.00;;;4.07;;
4698;SDS011;33708;49.466;11.176;2023-11-22T04:06:12;6.50;;;3.93;;
4698;SDS011;33708;49.466;11.176;2023-11-22T04:08:37;6.83;;;4.37;;
4698;SDS011;33708;49.466;11.176;2023-11-22T04:11:03;6.73;;;4.40;;
4698;SDS011;33708;49.466;11.176;2023-11-22T04:13:30;11.03;;;4.83;;
4698;SDS011;33708;49.466;11.176;2023-11-22T04:15:56;6.17;;;3.67;;
4698;SDS011;33708;49.466;11.176;2023-11-22T04:18:22;6.10;;;4.30;;
4698;SDS011;33708;49.466;11.176;2023-11-22T04:20:49;6.87;;;4.60;;
4698;SDS011;33708;49.466;11.176;2023-11-22T04:23:14;9.53;;;4.80;;
4698;SDS011;33708;49.466;11.176;2023-11-22T04:25:41;7.30;;;4.47;;
4698;SDS011;33708;49.466;11.176;2023-11-22T04:28:07;6.77;;;4.40;;
4698;SDS011;33708;49.466;11.176;2023-11-22T04:30:37;7.57;;;4.90;;
4698;SDS011;33708;49.466;11.176;2023-11-22T04:33:02;7.20;;;4.63;;
4698;SDS011;33708;49.466;11.176;2023-11-22T04:35:28;8.50;;;4.90;;
4698;SDS011;33708;49.466;11.176;2023-11-22T04:37:53;10.10;;;5.20;;
4698;SDS011;33708;49.466;11.176;2023-11-22T04:40:23;6.27;;;4.27;;
4698;SDS011;33708;49.466;11.176;2023-11-22T04:42:48;8.17;;;5.43;;
4698;SDS011;33708;49.466;11.176;2023-11-22T04:45:14;9.60;;;5.20;;
4698;SDS011;33708;49.466;11.176;2023-11-22T04:47:40;7.73;;;4.77;;
4698;SDS011;33708;49.466;11.176;2023-11-22T04:50:05;7.43;;;5.20;;
4698;SDS011;33708;49.466;11.176;2023-11-22T04:52:32;8.03;;;5.33;;
4698;SDS011;33708;49.466;11.176;2023-11-22T04:54:57;7.77;;;5.00;;
4698;SDS011;33708;49.466;11.176;2023-11-22T04:57:23;9.60;;;5.10;;
4698;SDS011;33708;49.466;11.176;2023-11-22T04:59:49;9.60;;;6.00;;
4698;SDS011;33708;49.466;11.176;2023-11-22T05:02:14;9.03;;;5.67;;
4698;SDS011;33708;49.466;11.176;2023-11-22T05:04:41;9.70;;;5.10;;
4698;SDS011;33708;49.466;11.176;2023-11-22T05:07:07;9.17;;;6.27;;
4698;SDS011;33708;49.466;11.176;2023-11-22T05:09:34;7.90;;;5.53;;
4698;SDS011;33708;49.466;11.176;2023-11-22T05:11:59;8.10;;;5.30;;
4698;SDS011;33708;49.466;11.176;2023-11-22T05:14:25;9.33;;;5.90;;
4698;SDS011;33708;49.466;11.176;2023-11-22T05:16:51;9.20;;;6.03;;
4698;SDS011;33708;49.466;11.176;2023-11-22T05:19:17;8.70;;;5.60;;
4698;SDS011;33708;49.466;11.176;2023-11-22T05:21:42;9.17;;;6.23;;
4698;SDS011;33708;49.466;11.176;2023-11-22T05:24:08;9.33;;;5.70;;
4698;SDS011;33708;49.466;11.176;2023-11-22T05:26:34;7.87;;;5.53;;
4698;SDS011;33708;49.466;11.176;2023-11-22T05:29:00;10.00;;;6.30;;
4698;SDS011;33708;49.466;11.176;2023-11-22T05:31:25;10.10;;;6.00;;
4698;SDS011;33708;49.466;11.176;2023-11-22T05:33:51;10.70;;;6.67;;
4698;SDS011;33708;49.466;11.176;2023-11-22T05:36:16;9.87;;;6.80;;
4698;SDS011;33708;49.466;11.176;2023-11-22T05:38:42;9.67;;;6.30;;
4698;SDS011;33708;49.466;11.176;2023-11-22T05:41:08;10.50;;;5.77;;
4698;SDS011;33708;49.466;11.176;2023-11-22T05:43:33;11.50;;;5.63;;
4698;SDS011;33708;49.466;11.176;2023-11-22T05:46:01;10.20;;;6.70;;
4698;SDS011;33708;49.466;11.176;2023-11-22T05:48:28;10.57;;;7.20;;
4698;SDS011;33708;49.466;11.176;2023-11-22T05:50:54;11.07;;;7.30;;
4698;SDS011;33708;49.466;11.176;2023-11-22T05:53:20;12.50;;;7.30;;
4698;SDS011;33708;49.466;11.176;2023-11-22T05:55:46;12.07;;;8.07;;
4698;SDS011;33708;49.466;11.176;2023-11-22T05:58:15;15.03;;;8.10;;
4698;SDS011;33708;49.466;11.176;2023-11-22T06:00:42;14.63;;;8.50;;
4698;SDS011;33708;49.466;11.176;2023-11-22T06:03:08;14.33;;;9.30;;
4698;SDS011;33708;49.466;11.176;2023-11-22T06:05:34;16.30;;;9.27;;
4698;SDS011;33708;49.466;11.176;2023-11-22T06:07:59;19.13;;;8.93;;
4698;SDS011;33708;49.466;11.176;2023-11-22T06:10:38;14.10;;;8.50;;
4698;SDS011;33708;49.466;11.176;2023-11-22T06:13:24;13.80;;;9.70;;
4698;SDS011;33708;49.466;11.176;2023-11-22T06:15:54;12.13;;;8.20;;
4698;SDS011;33708;49.466;11.176;2023-11-22T06:18:21;12.00;;;8.40;;
4698;SDS011;33708;49.466;11.176;2023-11-22T06:24:16;13.67;;;9.30;;
4698;SDS011;33708;49.466;11.176;2023-11-22T06:26:42;12.83;;;8.37;;
4698;SDS011;33708;49.466;11.176;2023-11-22T06:29:29;11.93;;;8.10;;
4698;SDS011;33708;49.466;11.176;2023-11-22T06:32:01;12.20;;;7.33;;
4698;SDS011;33708;49.466;11.176;2023-11-22T06:37:57;12.67;;;8.37;;
4698;SDS011;33708;49.466;11.176;2023-11-22T06:40:45;13.00;;;8.40;;
4698;SDS011;33708;49.466;11.176;2023-11-22T06:43:11;13.83;;;8.27;;
4698;SDS011;33708;49.466;11.176;2023-11-22T06:45:39;15.00;;;9.47;;
4698;SDS011;33708;49.466;11.176;2023-11-22T06:48:06;10.70;;;7.60;;
4698;SDS011;33708;49.466;11.176;2023-11-22T06:50:32;13.47;;;8.97;;
4698;SDS011;33708;49.466;11.176;2023-11-22T06:53:13;11.10;;;8.10;;
4698;SDS011;33708;49.466;11.176;2023-11-22T06:55:38;14.87;;;8.90;;
4698;SDS011;33708;49.466;11.176;2023-11-22T06:58:04;10.53;;;7.50;;
4698;SDS011;33708;49.466;11.176;2023-11-22T07:03:40;11.97;;;7.80;;
4698;SDS011;33708;49.466;11.176;2023-11-22T07:06:05;11.67;;;7.50;;
4698;SDS011;33708;49.466;11.176;2023-11-22T07:08:33;10.57;;;7.30;;
4698;SDS011;33708;49.466;11.176;2023-11-22T07:10:59;12.13;;;8.07;;
4698;SDS011;33708;49.466;11.176;2023-11-22T07:13:25;10.80;;;7.20;;
4698;SDS011;33708;49.466;11.176;2023-11-22T07:15:53;10.93;;;7.80;;
4698;SDS011;33708;49.466;11.176;2023-11-22T07:18:29;13.30;;;8.33;;
4698;SDS011;33708;49.466;11.176;2023-11-22T07:20:57;13.80;;;8.13;;
4698;SDS011;33708;49.466;11.176;2023-11-22T07:23:24;15.93;;;8.90;;
4698;SDS011;33708;49.466;11.176;2023-11-22T07:25:53;12.07;;;7.93;;
4698;SDS011;33708;49.466;11.176;2023-11-22T07:28:23;12.90;;;8.40;;
4698;SDS011;33708;49.466;11.176;2023-11-22T07:30:49;14.67;;;8.50;;
4698;SDS011;33708;49.466;11.176;2023-11-22T07:33:16;15.10;;;8.57;;
4698;SDS011;33708;49.466;11.176;2023-11-22T07:35:51;12.23;;;7.57;;
4698;SDS011;33708;49.466;11.176;2023-11-22T07:38:32;16.47;;;8.10;;
4698;SDS011;33708;49.466;11.176;2023-11-22T07:40:59;12.00;;;7.70;;
4698;SDS011;33708;49.466;11.176;2023-11-22T07:43:25;12.50;;;7.23;;
4698;SDS011;33708;49.466;11.176;2023-11-22T07:45:54;12.63;;;8.03;;
4698;SDS011;33708;49.466;11.176;2023-11-22T07:48:20;13.40;;;7.17;;
4698;SDS011;33708;49.466;11.176;2023-11-22T07:50:47;12.07;;;7.83;;
4698;SDS011;33708;49.466;11.176;2023-11-22T07:53:18;12.67;;;7.73;;
4698;SDS011;33708;49.466;11.176;2023-11-22T07:55:43;11.00;;;7.20;;
4698;SDS011;33708;49.466;11.176;2023-11-22T07:58:15;10.53;;;7.17;;
4698;SDS011;33708;49.466;11.176;2023-11-22T08:01:17;13.07;;;8.50;;
4698;SDS011;33708;49.466;11.176;2023-11-22T08:03:44;10.47;;;7.10;;
4698;SDS011;33708;49.466;11.176;2023-11-22T08:07:02;12.67;;;8.43;;
4698;SDS011;33708;49.466;11.176;2023-11-22T08:09:28;14.33;;;7.73;;
4698;SDS011;33708;49.466;11.176;2023-11-22T08:11:58;12.53;;;8.87;;
4698;SDS011;33708;49.466;11.176;2023-11-22T08:14:27;18.70;;;9.87;;
4698;SDS011;33708;49.466;11.176;2023-11-22T08:16:53;15.93;;;9.30;;
4698;SDS011;33708;49.466;11.176;2023-11-22T08:19:19;15.27;;;9.67;;
4698;SDS011;33708;49.466;11.176;2023-11-22T08:21:48;17.30;;;11.37;;
4698;SDS011;33708;49.466;11.176;2023-11-22T08:24:15;17.53;;;9.50;;
4698;SDS011;33708;49.466;11.176;2023-11-22T08:26:43;15.13;;;9.57;;
4698;SDS011;33708;49.466;11.176;2023-11-22T08:29:14;18.27;;;10.40;;
4698;SDS011;33708;49.466;11.176;2023-11-22T08:35:22;16.50;;;11.47;;
4698;SDS011;33708;49.466;11.176;2023-11-22T08:37:53;17.03;;;11.07;;
4698;SDS011;33708;49.466;11.176;2023-11-22T08:40:23;18.60;;;11.83;;
4698;SDS011;33708;49.466;11.176;2023-11-22T08:43:41;16.60;;;10.93;;
4698;SDS011;33708;49.466;11.176;2023-11-22T08:46:13;17.60;;;10.90;;
4698;SDS011;33708;49.466;11.176;2023-11-22T08:48:52;18.23;;;11.40;;
4698;SDS011;33708;49.466;11.176;2023-11-22T08:51:17;17.57;;;11.50;;
4698;SDS011;33708;49.466;11.176;2023-11-22T08:53:53;16.67;;;11.13;;
4698;SDS011;33708;49.466;11.176;2023-11-22T08:56:19;17.30;;;11.33;;
4698;SDS011;33708;49.466;11.176;2023-11-22T08:58:47;16.07;;;10.47;;
4698;SDS011;33708;49.466;11.176;2023-11-22T09:01:18;18.90;;;10.57;;
4698;SDS011;33708;49.466;11.176;2023-11-22T09:03:44;16.30;;;11.40;;
4698;SDS011;33708;49.466;11.176;2023-11-22T09:06:11;17.90;;;10.57;;
4698;SDS011;33708;49.466;11.176;2023-11-22T09:08:37;17.80;;;11.40;;
4698;SDS011;33708;49.466;11.176;2023-11-22T09:11:05;22.13;;;12.50;;
4698;SDS011;33708;49.466;11.176;2023-11-22T09:14:09;16.17;;;10.73;;
4698;SDS011;33708;49.466;11.176;2023-11-22T09:16:38;17.70;;;11.30;;
4698;SDS011;33708;49.466;11.176;2023-11-22T09:19:09;16.10;;;10.90;;
4698;SDS011;33708;49.466;11.176;2023-11-22T09:21:36;15.77;;;10.43;;
4698;SDS011;33708;49.466;11.176;2023-11-22T09:24:04;22.60;;;12.63;;
4698;SDS011;33708;49.466;11.176;2023-11-22T09:29:53;16.33;;;10.47;;
4698;SDS011;33708;49.466;11.176;2023-11-22T09:32:26;17.80;;;11.90;;
4698;SDS011;33708;49.466;11.176;2023-11-22T09:35:02;18.57;;;10.50;;
4698;SDS011;33708;49.466;11.176;2023-11-22T09:38:07;18.80;;;12.37;;
4698;SDS011;33708;49.466;11.176;2023-11-22T09:40:36;17.20;;;10.27;;
4698;SDS011;33708;49.466;11.176;2023-11-22T09:43:10;15.93;;;10.50;;
4698;SDS011;33708;49.466;11.176;2023-11-22T09:45:54;16.40;;;10.17;;
4698;SDS011;33708;49.466;11.176;2023-11-22T09:48:22;14.47;;;10.57;;
4698;SDS011;33708;49.466;11.176;2023-11-22T09:54:11;15.90;;;10.67;;
4698;SDS011;33708;49.466;11.176;2023-11-22T09:56:39;15.67;;;9.93;;
4698;SDS011;33708;49.466;11.176;2023-11-22T09:59:15;14.10;;;9.23;;
4698;SDS011;33708;49.466;11.176;2023-11-22T10:01:43;14.13;;;9.70;;
4698;SDS011;33708;49.466;11.176;2023-11-22T10:04:12;16.43;;;9.63;;
4698;SDS011;33708;49.466;11.176;2023-11-22T10:07:10;17.70;;;10.00;;
4698;SDS011;33708;49.466;11.176;2023-11-22T10:09:54;16.50;;;9.90;;
4698;SDS011;33708;49.466;11.176;2023-11-22T10:12:30;16.23;;;9.63;;
4698;SDS011;33708;49.466;11.176;2023-11-22T10:15:15;15.07;;;9.80;;
4698;SDS011;33708;49.466;11.176;2023-11-22T10:17:59;14.03;;;9.03;;
4698;SDS011;33708;49.466;11.176;2023-11-22T10:20:45;13.17;;;9.70;;
4698;SDS011;33708;49.466;11.176;2023-11-22T10:23:28;17.23;;;9.67;;
4698;SDS011;33708;49.466;11.176;2023-11-22T10:25:55;13.30;;;9.70;;
4698;SDS011;33708;49.466;11.176;2023-11-22T10:28:23;19.30;;;9.87;;
4698;SDS011;33708;49.466;11.176;2023-11-22T10:30:59;13.80;;;8.40;;
4698;SDS011;33708;49.466;11.176;2023-11-22T10:33:41;13.63;;;9.70;;
4698;SDS011;33708;49.466;11.176;2023-11-22T10:36:08;13.40;;;8.90;;
4698;SDS011;33708;49.466;11.176;2023-11-22T10:38:35;15.00;;;8.40;;
4698;SDS011;33708;49.466;11.176;2023-11-22T10:41:04;14.27;;;8.80;;
4698;SDS011;33708;49.466;11.176;2023-11-22T10:43:31;14.60;;;8.80;;
4698;SDS011;33708;49.466;11.176;2023-11-22T10:46:03;12.80;;;9.33;;
4698;SDS011;33708;49.466;11.176;2023-11-22T10:48:31;11.70;;;7.40;;
4698;SDS011;33708;49.466;11.176;2023-11-22T10:51:02;15.60;;;9.10;;
4698;SDS011;33708;49.466;11.176;2023-11-22T10:53:34;14.20;;;9.87;;
4698;SDS011;33708;49.466;11.176;2023-11-22T10:56:19;11.87;;;8.17;;
4698;SDS011;33708;49.466;11.176;2023-11-22T10:58:52;13.63;;;9.70;;
4698;SDS011;33708;49.466;11.176;2023-11-22T11:01:39;15.07;;;9.60;;
4698;SDS011;33708;49.466;11.176;2023-11-22T11:04:11;13.33;;;8.63;;
4698;SDS011;33708;49.466;11.176;2023-11-22T11:06:46;14.80;;;9.00;;
4698;SDS011;33708;49.466;11.176;2023-11-22T11:09:20;14.37;;;10.20;;
4698;SDS011;33708;49.466;11.176;2023-11-22T11:12:00;13.40;;;9.30;;
4698;SDS011;33708;49.466;11.176;2023-11-22T11:14:49;14.97;;;8.80;;
4698;SDS011;33708;49.466;11.176;2023-11-22T11:17:17;14.03;;;9.03;;
4698;SDS011;33708;49.466;11.176;2023-11-22T11:19:43;12.33;;;8.50;;
4698;SDS011;33708;49.466;11.176;2023-11-22T11:22:08;14.17;;;8.80;;
4698;SDS011;33708;49.466;11.176;2023-11-22T11:24:39;13.00;;;8.97;;
4698;SDS011;33708;49.466;11.176;2023-11-22T11:27:06;15.63;;;9.90;;
4698;SDS011;33708;49.466;11.176;2023-11-22T11:29:36;22.87;;;9.17;;
4698;SDS011;33708;49.466;11.176;2023-11-22T11:32:09;14.73;;;8.17;;
4698;SDS011;33708;49.466;11.176;2023-11-22T11:34:56;14.00;;;9.10;;
4698;SDS011;33708;49.466;11.176;2023-11-22T11:37:22;12.07;;;8.27;;
4698;SDS011;33708;49.466;11.176;2023-11-22T11:39:47;12.57;;;8.03;;
4698;SDS011;33708;49.466;11.176;2023-11-22T11:42:13;14.40;;;9.53;;
4698;SDS011;33708;49.466;11.176;2023-11-22T11:44:50;15.40;;;9.93;;
4698;SDS011;33708;49.466;11.176;2023-11-22T11:47:28;14.90;;;9.37;;
4698;SDS011;33708;49.466;11.176;2023-11-22T11:49:56;14.23;;;9.03;;
4698;SDS011;33708;49.466;11.176;2023-11-22T11:52:24;15.57;;;9.77;;
4698;SDS011;33708;49.466;11.176;2023-11-22T11:54:50;12.13;;;8.40;;
4698;SDS011;33708;49.466;11.176;2023-11-22T11:57:16;14.50;;;9.90;;
4698;SDS011;33708;49.466;11.176;2023-11-22T11:59:42;14.60;;;9.60;;
4698;SDS011;33708;49.466;11.176;2023-11-22T12:02:08;16.43;;;8.60;;
4698;SDS011;33708;49.466;11.176;2023-11-22T12:04:33;13.17;;;9.30;;
4698;SDS011;33708;49.466;11.176;2023-11-22T12:06:59;16.67;;;8.87;;
4698;SDS011;33708;49.466;11.176;2023-11-22T12:09:25;14.00;;;8.27;;
4698;SDS011;33708;49.466;11.176;2023-11-22T12:11:52;17.10;;;8.93;;
4698;SDS011;33708;49.466;11.176;2023-11-22T12:14:22;13.50;;;8.90;;
4698;SDS011;33708;49.466;11.176;2023-11-22T12:16:50;12.80;;;8.67;;
4698;SDS011;33708;49.466;11.176;2023-11-22T12:19:26;14.80;;;8.90;;
4698;SDS011;33708;49.466;11.176;2023-11-22T12:21:53;12.20;;;8.57;;
4698;SDS011;33708;49.466;11.176;2023-11-22T12:24:19;15.47;;;10.17;;
4698;SDS011;33708;49.466;11.176;2023-11-22T12:26:45;13.53;;;8.43;;
4698;SDS011;33708;49.466;11.176;2023-11-22T12:29:13;12.43;;;7.90;;
4698;SDS011;33708;49.466;11.176;2023-11-22T12:31:45;12.77;;;8.13;;
4698;SDS011;33708;49.466;11.176;2023-11-22T12:34:14;12.70;;;8.13;;
4698;SDS011;33708;49.466;11.176;2023-11-22T12:36:40;10.50;;;7.47;;
4698;SDS011;33708;49.466;11.176;2023-11-22T12:39:07;11.10;;;7.23;;
4698;SDS011;33708;49.466;11.176;2023-11-22T12:41:41;10.00;;;6.80;;
4698;SDS011;33708;49.466;11.176;2023-11-22T12:44:07;11.90;;;7.23;;
4698;SDS011;33708;49.466;11.176;2023-11-22T12:46:49;11.43;;;7.60;;
4698;SDS011;33708;49.466;11.176;2023-11-22T12:49:22;10.30;;;6.87;;
4698;SDS011;33708;49.466;11.176;2023-11-22T12:51:55;11.43;;;7.40;;
4698;SDS011;33708;49.466;11.176;2023-11-22T12:54:24;12.90;;;8.60;;
4698;SDS011;33708;49.466;11.176;2023-11-22T12:56:50;11.27;;;7.60;;
4698;SDS011;33708;49.466;11.176;2023-11-22T12:59:16;11.00;;;6.40;;
4698;SDS011;33708;49.466;11.176;2023-11-22T13:01:42;10.17;;;6.70;;
4698;SDS011;33708;49.466;11.176;2023-11-22T13:04:09;11.73;;;7.60;;
4698;SDS011;33708;49.466;11.176;2023-11-22T13:06:35;11.17;;;7.53;;
4698;SDS011;33708;49.466;11.176;2023-11-22T13:09:00;12.17;;;6.87;;
4698;SDS011;33708;49.466;11.176;2023-11-22T13:11:26;11.20;;;8.00;;
4698;SDS011;33708;49.466;11.176;2023-11-22T13:13:52;11.10;;;6.90;;
4698;SDS011;33708;49.466;11.176;2023-11-22T13:16:17;12.10;;;8.10;;
4698;SDS011;33708;49.466;11.176;2023-11-22T13:18:44;12.67;;;7.50;;
4698;SDS011;33708;49.466;11.176;2023-11-22T13:21:09;11.07;;;7.10;;
4698;SDS011;33708;49.466;11.176;2023-11-22T13:23:35;11.57;;;7.47;;
4698;SDS011;33708;49.466;11.176;2023-11-22T13:26:01;10.40;;;6.60;;
4698;SDS011;33708;49.466;11.176;2023-11-22T13:28:28;11.70;;;8.23;;
4698;SDS011;33708;49.466;11.176;2023-11-22T13:30:53;11.23;;;7.23;;
4698;SDS011;33708;49.466;11.176;2023-11-22T13:33:19;10.60;;;6.97;;
4698;SDS011;33708;49.466;11.176;2023-11-22T13:35:45;12.37;;;7.60;;
4698;SDS011;33708;49.466;11.176;2023-11-22T13:38:12;10.50;;;7.30;;
4698;SDS011;33708;49.466;11.176;2023-11-22T13:40:38;11.03;;;7.30;;
4698;SDS011;33708;49.466;11.176;2023-11-22T13:43:11;15.13;;;7.67;;
4698;SDS011;33708;49.466;11.176;2023-11-22T13:45:38;10.37;;;7.37;;
4698;SDS011;33708;49.466;11.176;2023-11-22T13:48:06;9.80;;;6.80;;
4698;SDS011;33708;49.466;11.176;2023-11-22T13:50:34;11.60;;;7.37;;
4698;SDS011;33708;49.466;11.176;2023-11-22T13:53:01;19.57;;;8.83;;
4698;SDS011;33708;49.466;11.176;2023-11-22T13:55:28;11.50;;;7.10;;
4698;SDS011;33708;49.466;11.176;2023-11-22T13:57:55;11.57;;;7.53;;
4698;SDS011;33708;49.466;11.176;2023-11-22T14:00:24;14.60;;;8.73;;
4698;SDS011;33708;49.466;11.176;2023-11-22T14:02:58;12.53;;;8.07;;
4698;SDS011;33708;49.466;11.176;2023-11-22T14:05:30;10.43;;;6.50;;
4698;SDS011;33708;49.466;11.176;2023-11-22T14:07:58;10.90;;;7.30;;
4698;SDS011;33708;49.466;11.176;2023-11-22T14:10:24;11.90;;;7.33;;
4698;SDS011;33708;49.466;11.176;2023-11-22T14:12:49;14.47;;;7.67;;
4698;SDS011;33708;49.466;11.176;2023-11-22T14:15:15;9.90;;;6.70;;
4698;SDS011;33708;49.466;11.176;2023-11-22T14:17:41;10.10;;;6.40;;
4698;SDS011;33708;49.466;11.176;2023-11-22T14:20:12;12.53;;;7.33;;
4698;SDS011;33708;49.466;11.176;2023-11-22T14:23:00;11.10;;;6.60;;
4698;SDS011;33708;49.466;11.176;2023-11-22T14:25:26;13.83;;;8.40;;
4698;SDS011;33708;49.466;11.176;2023-11-22T14:27:51;12.47;;;8.63;;
4698;SDS011;33708;49.466;11.176;2023-11-22T14:30:19;12.40;;;8.20;;
4698;SDS011;33708;49.466;11.176;2023-11-22T14:32:46;12.83;;;7.70;;
4698;SDS011;33708;49.466;11.176;2023-11-22T14:35:12;11.43;;;7.70;;
4698;SDS011;33708;49.466;11.176;2023-11-22T14:37:38;13.23;;;7.97;;
4698;SDS011;33708;49.466;11.176;2023-11-22T14:40:07;10.93;;;7.37;;
4698;SDS011;33708;49.466;11.176;2023-11-22T14:42:45;19.57;;;7.90;;
4698;SDS011;33708;49.466;11.176;2023-11-22T14:45:14;11.33;;;7.00;;
4698;SDS011;33708;49.466;11.176;2023-11-22T14:47:40;11.40;;;7.37;;
4698;SDS011;33708;49.466;11.176;2023-11-22T14:50:09;11.10;;;7.47;;
4698;SDS011;33708;49.466;11.176;2023-11-22T14:52:36;13.70;;;7.97;;
4698;SDS011;33708;49.466;11.176;2023-11-22T14:55:02;11.73;;;7.27;;
4698;SDS011;33708;49.466;11.176;2023-11-22T14:57:30;13.07;;;8.97;;
4698;SDS011;33708;49.466;11.176;2023-11-22T14:59:56;15.80;;;9.07;;
4698;SDS011;33708;49.466;11.176;2023-11-22T15:02:22;14.63;;;8.50;;
4698;SDS011;33708;49.466;11.176;2023-11-22T15:04:48;14.27;;;9.80;;
4698;SDS011;33708;49.466;11.176;2023-11-22T15:07:14;14.00;;;9.70;;
4698;SDS011;33708;49.466;11.176;2023-11-22T15:09:40;16.93;;;9.17;;
4698;SDS011;33708;49.466;11.176;2023-11-22T15:12:06;13.73;;;9.10;;
4698;SDS011;33708;49.466;11.176;2023-11-22T15:14:32;12.13;;;8.40;;
4698;SDS011;33708;49.466;11.176;2023-11-22T15:16:58;14.57;;;9.90;;
4698;SDS011;33708;49.466;11.176;2023-11-22T15:19:26;14.87;;;9.10;;
4698;SDS011;33708;49.466;11.176;2023-11-22T15:21:53;13.20;;;8.60;;
4698;SDS011;33708;49.466;11.176;2023-11-22T15:24:19;12.40;;;8.63;;
4698;SDS011;33708;49.466;11.176;2023-11-22T15:26:44;14.00;;;8.67;;
4698;SDS011;33708;49.466;11.176;2023-11-22T15:29:10;14.90;;;9.53;;
4698;SDS011;33708;49.466;11.176;2023-11-22T15:31:37;14.37;;;9.93;;
4698;SDS011;33708;49.466;11.176;2023-11-22T15:34:02;14.47;;;9.70;;
4698;SDS011;33708;49.466;11.176;2023-11-22T15:36:28;13.67;;;9.10;;
4698;SDS011;33708;49.466;11.176;2023-11-22T15:38:54;12.70;;;8.50;;